METAR AND TAF INFORMATION
METAR FOR SKMR
ADDS - METARS form results

(1220 UTC 21 April 2019)
Data provider http://aviationweather.gov/metar/data/
 
METAR text: SKMR 211200Z 00000KT 9999 SCT018 25/24 A2988
Conditions at: SKMR (MONTERIA/LOS GAR, CO) observed 1200 UTC 21 April 2019
Temperature: 25.0°C (77°F)
Dewpoint: 24.0°C (75°F) [RH = 94%]
Pressure (altimeter): 29.88 inches Hg (1011.9 mb)
Winds: calm
Visibility: 6 or more miles (10+ km)
Ceiling: at least 12,000 feet AGL
Clouds: scattered clouds at 1800 feet AGL
Weather: no significant weather observed at this time

 AIRPORT MAP

 RUNWAY INFORMATION
Runway 14 Runway length 6285 ft Runway width 115 ft
Runway elevation 20 ft Runway displaced threshold 0 ft Runway heading 138
Runway 32 Runway length 6285 ft Runway width 115 ft
Runway elevation 18 ft Runway displaced threshold 0 ft Runway heading 318

 AIRPORT FREQUENCIES
Type INFO Name MONTERIA F Frequency 127.5 MHZ
Type RDO Name MONTERIA R Frequency 348.8 MHZ
Type TWR Name TWR Frequency 118.1 MHZ

 AIRPORT NEAR NAVIGATION AIDS
Type VOR-DME Name Monteria Frequency 114400 KHZ

Details

Relevance in our operations!


Pilot Roster

+16


Routes

+512


Hubs

+8


Fleet

+113